sensor_id;sensor_type;location;lat;lon;timestamp;temperature;humidity
16511;DHT22;8368;48.772;8.754;2022-10-10T00:00:38;8.60;99.90
16511;DHT22;8368;48.772;8.754;2022-10-10T00:03:05;8.70;99.90
16511;DHT22;8368;48.772;8.754;2022-10-10T00:05:31;8.70;99.90
16511;DHT22;8368;48.772;8.754;2022-10-10T00:07:57;8.80;99.90
16511;DHT22;8368;48.772;8.754;2022-10-10T00:10:24;8.80;99.90
16511;DHT22;8368;48.772;8.754;2022-10-10T00:12:49;8.80;99.90
16511;DHT22;8368;48.772;8.754;2022-10-10T00:15:15;8.90;99.90
16511;DHT22;8368;48.772;8.754;2022-10-10T00:17:41;8.90;99.90
16511;DHT22;8368;48.772;8.754;2022-10-10T00:20:09;9.00;99.90
16511;DHT22;8368;48.772;8.754;2022-10-10T00:22:35;9.00;99.90
16511;DHT22;8368;48.772;8.754;2022-10-10T00:25:01;9.10;99.90
16511;DHT22;8368;48.772;8.754;2022-10-10T00:27:26;9.10;99.90
16511;DHT22;8368;48.772;8.754;2022-10-10T00:29:52;9.10;99.90
16511;DHT22;8368;48.772;8.754;2022-10-10T00:32:17;9.20;99.90
16511;DHT22;8368;48.772;8.754;2022-10-10T00:34:43;9.20;99.90
16511;DHT22;8368;48.772;8.754;2022-10-10T00:37:08;9.20;99.90
16511;DHT22;8368;48.772;8.754;2022-10-10T00:39:34;9.30;99.90
16511;DHT22;8368;48.772;8.754;2022-10-10T00:41:59;9.30;99.90
16511;DHT22;8368;48.772;8.754;2022-10-10T00:44:26;9.30;99.90
16511;DHT22;8368;48.772;8.754;2022-10-10T00:46:52;9.30;99.90
16511;DHT22;8368;48.772;8.754;2022-10-10T00:49:21;9.30;99.90
16511;DHT22;8368;48.772;8.754;2022-10-10T00:51:50;9.30;99.90
16511;DHT22;8368;48.772;8.754;2022-10-10T00:54:19;9.40;99.90
16511;DHT22;8368;48.772;8.754;2022-10-10T00:56:52;9.40;99.90
16511;DHT22;8368;48.772;8.754;2022-10-10T00:59:20;9.40;99.90
16511;DHT22;8368;48.772;8.754;2022-10-10T01:01:46;9.50;99.90
16511;DHT22;8368;48.772;8.754;2022-10-10T01:04:38;9.50;99.90
16511;DHT22;8368;48.772;8.754;2022-10-10T01:07:07;9.50;99.90
16511;DHT22;8368;48.772;8.754;2022-10-10T01:09:35;9.60;99.90
16511;DHT22;8368;48.772;8.754;2022-10-10T01:12:24;9.60;99.90
16511;DHT22;8368;48.772;8.754;2022-10-10T01:29:37;9.70;99.90
16511;DHT22;8368;48.772;8.754;2022-10-10T01:37:46;9.70;99.90
16511;DHT22;8368;48.772;8.754;2022-10-10T01:41:14;9.70;99.90
16511;DHT22;8368;48.772;8.754;2022-10-10T01:43:19;9.70;99.90
16511;DHT22;8368;48.772;8.754;2022-10-10T01:45:47;9.70;99.90
16511;DHT22;8368;48.772;8.754;2022-10-10T01:48:14;9.70;99.90
16511;DHT22;8368;48.772;8.754;2022-10-10T01:51:12;9.80;99.90
16511;DHT22;8368;48.772;8.754;2022-10-10T01:54:03;9.80;99.90
16511;DHT22;8368;48.772;8.754;2022-10-10T02:10:00;9.90;99.90
16511;DHT22;8368;48.772;8.754;2022-10-10T02:12:28;9.90;99.90
16511;DHT22;8368;48.772;8.754;2022-10-10T02:15:02;9.90;99.90
16511;DHT22;8368;48.772;8.754;2022-10-10T02:17:29;9.90;99.90
16511;DHT22;8368;48.772;8.754;2022-10-10T02:19:58;9.90;99.90
16511;DHT22;8368;48.772;8.754;2022-10-10T02:22:26;10.00;99.90
16511;DHT22;8368;48.772;8.754;2022-10-10T02:24:53;9.90;99.90
16511;DHT22;8368;48.772;8.754;2022-10-10T02:27:39;9.90;99.90
16511;DHT22;8368;48.772;8.754;2022-10-10T02:30:07;9.90;99.90
16511;DHT22;8368;48.772;8.754;2022-10-10T02:32:46;9.90;99.90
16511;DHT22;8368;48.772;8.754;2022-10-10T02:35:21;9.90;99.90
16511;DHT22;8368;48.772;8.754;2022-10-10T02:37:48;9.90;99.90
16511;DHT22;8368;48.772;8.754;2022-10-10T02:40:18;9.90;99.90
16511;DHT22;8368;48.772;8.754;2022-10-10T02:42:45;9.90;99.90
16511;DHT22;8368;48.772;8.754;2022-10-10T02:45:11;9.90;99.90
16511;DHT22;8368;48.772;8.754;2022-10-10T02:47:37;9.90;99.90
16511;DHT22;8368;48.772;8.754;2022-10-10T02:50:03;9.90;99.90
16511;DHT22;8368;48.772;8.754;2022-10-10T02:52:29;9.80;99.90
16511;DHT22;8368;48.772;8.754;2022-10-10T02:54:54;9.80;99.90
16511;DHT22;8368;48.772;8.754;2022-10-10T02:57:20;9.70;99.90
16511;DHT22;8368;48.772;8.754;2022-10-10T02:59:45;9.70;99.90
16511;DHT22;8368;48.772;8.754;2022-10-10T03:02:11;9.70;99.90
16511;DHT22;8368;48.772;8.754;2022-10-10T03:04:36;9.80;99.90
16511;DHT22;8368;48.772;8.754;2022-10-10T03:07:03;9.70;99.90
16511;DHT22;8368;48.772;8.754;2022-10-10T03:09:28;9.70;99.90
16511;DHT22;8368;48.772;8.754;2022-10-10T03:11:54;9.80;99.90
16511;DHT22;8368;48.772;8.754;2022-10-10T03:14:20;9.80;99.90
16511;DHT22;8368;48.772;8.754;2022-10-10T03:16:45;9.90;99.90
16511;DHT22;8368;48.772;8.754;2022-10-10T03:19:11;9.90;99.90
16511;DHT22;8368;48.772;8.754;2022-10-10T03:21:36;9.90;99.90
16511;DHT22;8368;48.772;8.754;2022-10-10T03:24:02;10.00;99.90
16511;DHT22;8368;48.772;8.754;2022-10-10T03:26:29;10.00;99.90
16511;DHT22;8368;48.772;8.754;2022-10-10T03:28:55;10.10;99.90
16511;DHT22;8368;48.772;8.754;2022-10-10T03:31:20;10.10;99.90
16511;DHT22;8368;48.772;8.754;2022-10-10T03:33:46;10.10;99.90
16511;DHT22;8368;48.772;8.754;2022-10-10T03:36:11;10.10;99.90
16511;DHT22;8368;48.772;8.754;2022-10-10T03:38:38;10.10;99.90
16511;DHT22;8368;48.772;8.754;2022-10-10T03:41:04;10.10;99.90
16511;DHT22;8368;48.772;8.754;2022-10-10T03:43:30;10.10;99.90
16511;DHT22;8368;48.772;8.754;2022-10-10T03:45:56;10.10;99.90
16511;DHT22;8368;48.772;8.754;2022-10-10T03:48:21;10.10;99.90
16511;DHT22;8368;48.772;8.754;2022-10-10T03:50:47;10.10;99.90
16511;DHT22;8368;48.772;8.754;2022-10-10T03:53:12;10.10;99.90
16511;DHT22;8368;48.772;8.754;2022-10-10T03:55:39;10.20;99.90
16511;DHT22;8368;48.772;8.754;2022-10-10T03:58:05;10.20;99.90
16511;DHT22;8368;48.772;8.754;2022-10-10T04:00:31;10.10;99.90
16511;DHT22;8368;48.772;8.754;2022-10-10T04:02:56;10.10;99.90
16511;DHT22;8368;48.772;8.754;2022-10-10T04:05:22;10.10;99.90
16511;DHT22;8368;48.772;8.754;2022-10-10T04:07:47;10.10;99.90
16511;DHT22;8368;48.772;8.754;2022-10-10T04:10:13;10.10;99.90
16511;DHT22;8368;48.772;8.754;2022-10-10T04:12:38;10.20;99.90
16511;DHT22;8368;48.772;8.754;2022-10-10T04:15:04;10.10;99.90
16511;DHT22;8368;48.772;8.754;2022-10-10T04:17:30;10.10;99.90
16511;DHT22;8368;48.772;8.754;2022-10-10T04:19:56;10.00;99.90
16511;DHT22;8368;48.772;8.754;2022-10-10T04:22:21;10.00;99.90
16511;DHT22;8368;48.772;8.754;2022-10-10T04:24:47;10.00;99.90
16511;DHT22;8368;48.772;8.754;2022-10-10T04:27:12;9.90;99.90
16511;DHT22;8368;48.772;8.754;2022-10-10T04:29:38;10.00;99.90
16511;DHT22;8368;48.772;8.754;2022-10-10T04:32:04;10.00;99.90
16511;DHT22;8368;48.772;8.754;2022-10-10T04:34:29;10.00;99.90
16511;DHT22;8368;48.772;8.754;2022-10-10T04:36:55;10.00;99.90
16511;DHT22;8368;48.772;8.754;2022-10-10T04:39:21;10.10;99.90
16511;DHT22;8368;48.772;8.754;2022-10-10T04:41:46;10.10;99.90
16511;DHT22;8368;48.772;8.754;2022-10-10T04:44:15;10.10;99.90
16511;DHT22;8368;48.772;8.754;2022-10-10T04:46:40;10.20;99.90
16511;DHT22;8368;48.772;8.754;2022-10-10T04:49:06;10.20;99.90
16511;DHT22;8368;48.772;8.754;2022-10-10T04:51:32;10.10;99.90
16511;DHT22;8368;48.772;8.754;2022-10-10T04:53:57;10.20;99.90
16511;DHT22;8368;48.772;8.754;2022-10-10T04:56:24;10.10;99.90
16511;DHT22;8368;48.772;8.754;2022-10-10T04:58:50;10.10;99.90
16511;DHT22;8368;48.772;8.754;2022-10-10T05:01:16;10.10;99.90
16511;DHT22;8368;48.772;8.754;2022-10-10T05:03:41;10.10;99.90
16511;DHT22;8368;48.772;8.754;2022-10-10T05:06:07;10.10;99.90
16511;DHT22;8368;48.772;8.754;2022-10-10T05:08:32;10.20;99.90
16511;DHT22;8368;48.772;8.754;2022-10-10T05:10:58;10.20;99.90
16511;DHT22;8368;48.772;8.754;2022-10-10T05:13:24;10.20;99.90
16511;DHT22;8368;48.772;8.754;2022-10-10T05:15:50;10.20;99.90
16511;DHT22;8368;48.772;8.754;2022-10-10T05:18:17;10.20;99.90
16511;DHT22;8368;48.772;8.754;2022-10-10T05:20:42;10.30;99.90
16511;DHT22;8368;48.772;8.754;2022-10-10T05:23:12;10.30;99.90
16511;DHT22;8368;48.772;8.754;2022-10-10T05:25:38;10.20;99.90
16511;DHT22;8368;48.772;8.754;2022-10-10T05:28:03;10.20;99.90
16511;DHT22;8368;48.772;8.754;2022-10-10T05:30:29;10.20;99.90
16511;DHT22;8368;48.772;8.754;2022-10-10T05:32:54;10.20;99.90
16511;DHT22;8368;48.772;8.754;2022-10-10T05:35:20;10.30;99.90
16511;DHT22;8368;48.772;8.754;2022-10-10T05:37:46;10.30;99.90
16511;DHT22;8368;48.772;8.754;2022-10-10T05:40:11;10.20;99.90
16511;DHT22;8368;48.772;8.754;2022-10-10T05:42:37;10.20;99.90
16511;DHT22;8368;48.772;8.754;2022-10-10T05:45:02;10.20;99.90
16511;DHT22;8368;48.772;8.754;2022-10-10T05:47:28;10.20;99.90
16511;DHT22;8368;48.772;8.754;2022-10-10T05:49:54;10.20;99.90
16511;DHT22;8368;48.772;8.754;2022-10-10T05:52:19;10.20;99.90
16511;DHT22;8368;48.772;8.754;2022-10-10T05:54:45;10.20;99.90
16511;DHT22;8368;48.772;8.754;2022-10-10T05:57:10;10.30;99.90
16511;DHT22;8368;48.772;8.754;2022-10-10T05:59:36;10.20;99.90
16511;DHT22;8368;48.772;8.754;2022-10-10T06:02:01;10.30;99.90
16511;DHT22;8368;48.772;8.754;2022-10-10T06:04:27;10.30;99.90
16511;DHT22;8368;48.772;8.754;2022-10-10T06:06:52;10.30;99.90
16511;DHT22;8368;48.772;8.754;2022-10-10T06:09:18;10.40;99.90
16511;DHT22;8368;48.772;8.754;2022-10-10T06:11:44;10.40;99.90
16511;DHT22;8368;48.772;8.754;2022-10-10T06:14:09;10.50;99.90
16511;DHT22;8368;48.772;8.754;2022-10-10T06:16:35;10.50;99.90
16511;DHT22;8368;48.772;8.754;2022-10-10T06:19:01;10.50;99.90
16511;DHT22;8368;48.772;8.754;2022-10-10T06:21:27;10.40;99.90
16511;DHT22;8368;48.772;8.754;2022-10-10T06:23:53;10.40;99.90
16511;DHT22;8368;48.772;8.754;2022-10-10T06:26:18;10.40;99.90
16511;DHT22;8368;48.772;8.754;2022-10-10T06:28:44;10.30;99.90
16511;DHT22;8368;48.772;8.754;2022-10-10T06:31:11;10.30;99.90
16511;DHT22;8368;48.772;8.754;2022-10-10T06:33:37;10.30;99.90
16511;DHT22;8368;48.772;8.754;2022-10-10T06:36:06;10.30;99.90
16511;DHT22;8368;48.772;8.754;2022-10-10T06:38:36;10.30;99.90
16511;DHT22;8368;48.772;8.754;2022-10-10T06:41:03;10.30;99.90
16511;DHT22;8368;48.772;8.754;2022-10-10T06:43:29;10.30;99.90
16511;DHT22;8368;48.772;8.754;2022-10-10T06:45:55;10.40;99.90
16511;DHT22;8368;48.772;8.754;2022-10-10T06:48:20;10.40;99.90
16511;DHT22;8368;48.772;8.754;2022-10-10T06:50:58;10.50;99.90
16511;DHT22;8368;48.772;8.754;2022-10-10T06:53:24;10.70;99.90
16511;DHT22;8368;48.772;8.754;2022-10-10T06:55:49;10.80;99.90
16511;DHT22;8368;48.772;8.754;2022-10-10T06:58:15;10.90;99.90
16511;DHT22;8368;48.772;8.754;2022-10-10T07:00:40;11.10;99.90
16511;DHT22;8368;48.772;8.754;2022-10-10T07:03:07;11.20;99.90
16511;DHT22;8368;48.772;8.754;2022-10-10T07:05:36;11.30;99.90
16511;DHT22;8368;48.772;8.754;2022-10-10T07:08:02;11.50;99.90
16511;DHT22;8368;48.772;8.754;2022-10-10T07:10:28;11.60;99.90
16511;DHT22;8368;48.772;8.754;2022-10-10T07:12:53;11.80;99.90
16511;DHT22;8368;48.772;8.754;2022-10-10T07:15:19;11.80;99.90
16511;DHT22;8368;48.772;8.754;2022-10-10T07:17:44;11.90;99.90
16511;DHT22;8368;48.772;8.754;2022-10-10T07:20:10;12.00;99.90
16511;DHT22;8368;48.772;8.754;2022-10-10T07:22:36;12.00;99.90
16511;DHT22;8368;48.772;8.754;2022-10-10T07:25:01;12.10;99.90
16511;DHT22;8368;48.772;8.754;2022-10-10T07:27:27;12.20;99.90
16511;DHT22;8368;48.772;8.754;2022-10-10T07:29:52;12.30;99.90
16511;DHT22;8368;48.772;8.754;2022-10-10T07:32:18;12.30;99.90
16511;DHT22;8368;48.772;8.754;2022-10-10T07:34:43;12.40;99.90
16511;DHT22;8368;48.772;8.754;2022-10-10T07:37:09;12.40;99.90
16511;DHT22;8368;48.772;8.754;2022-10-10T07:39:34;12.30;99.90
16511;DHT22;8368;48.772;8.754;2022-10-10T07:42:00;12.30;99.90
16511;DHT22;8368;48.772;8.754;2022-10-10T07:44:26;12.30;99.90
16511;DHT22;8368;48.772;8.754;2022-10-10T07:46:51;12.30;99.90
16511;DHT22;8368;48.772;8.754;2022-10-10T07:49:17;12.30;99.90
16511;DHT22;8368;48.772;8.754;2022-10-10T07:51:42;12.20;99.90
16511;DHT22;8368;48.772;8.754;2022-10-10T07:54:08;12.20;99.90
16511;DHT22;8368;48.772;8.754;2022-10-10T07:56:34;12.10;99.90
16511;DHT22;8368;48.772;8.754;2022-10-10T07:59:00;12.10;99.90
16511;DHT22;8368;48.772;8.754;2022-10-10T08:01:25;12.10;99.90
16511;DHT22;8368;48.772;8.754;2022-10-10T08:03:51;11.90;99.90
16511;DHT22;8368;48.772;8.754;2022-10-10T08:06:17;11.90;99.90
16511;DHT22;8368;48.772;8.754;2022-10-10T08:08:45;11.90;99.90
16511;DHT22;8368;48.772;8.754;2022-10-10T08:11:13;11.80;99.90
16511;DHT22;8368;48.772;8.754;2022-10-10T08:13:39;11.80;99.90
16511;DHT22;8368;48.772;8.754;2022-10-10T08:16:08;11.70;99.90
16511;DHT22;8368;48.772;8.754;2022-10-10T08:18:33;11.70;99.90
16511;DHT22;8368;48.772;8.754;2022-10-10T08:21:00;11.70;99.90
16511;DHT22;8368;48.772;8.754;2022-10-10T08:23:26;11.80;99.90
16511;DHT22;8368;48.772;8.754;2022-10-10T08:25:52;11.70;99.90
16511;DHT22;8368;48.772;8.754;2022-10-10T08:28:17;11.70;99.90
16511;DHT22;8368;48.772;8.754;2022-10-10T08:30:43;11.90;99.90
16511;DHT22;8368;48.772;8.754;2022-10-10T08:33:09;12.10;99.90
16511;DHT22;8368;48.772;8.754;2022-10-10T08:35:38;12.20;99.90
16511;DHT22;8368;48.772;8.754;2022-10-10T08:38:04;12.30;99.90
16511;DHT22;8368;48.772;8.754;2022-10-10T08:40:30;12.40;99.90
16511;DHT22;8368;48.772;8.754;2022-10-10T08:43:00;12.70;99.90
16511;DHT22;8368;48.772;8.754;2022-10-10T08:45:28;12.80;99.90
16511;DHT22;8368;48.772;8.754;2022-10-10T08:47:58;13.00;99.90
16511;DHT22;8368;48.772;8.754;2022-10-10T08:50:50;13.10;99.90
16511;DHT22;8368;48.772;8.754;2022-10-10T08:53:31;13.10;99.90
16511;DHT22;8368;48.772;8.754;2022-10-10T08:55:59;13.20;99.90
16511;DHT22;8368;48.772;8.754;2022-10-10T08:58:28;13.20;99.90
16511;DHT22;8368;48.772;8.754;2022-10-10T09:01:17;13.10;99.90
16511;DHT22;8368;48.772;8.754;2022-10-10T09:15:27;13.30;99.90
16511;DHT22;8368;48.772;8.754;2022-10-10T09:23:27;13.60;99.90
16511;DHT22;8368;48.772;8.754;2022-10-10T09:26:14;13.70;99.90
16511;DHT22;8368;48.772;8.754;2022-10-10T09:34:59;14.30;99.90
16511;DHT22;8368;48.772;8.754;2022-10-10T09:37:36;14.50;99.90
16511;DHT22;8368;48.772;8.754;2022-10-10T09:40:06;14.60;99.90
16511;DHT22;8368;48.772;8.754;2022-10-10T09:42:37;14.70;99.90
16511;DHT22;8368;48.772;8.754;2022-10-10T09:45:23;14.90;99.90
16511;DHT22;8368;48.772;8.754;2022-10-10T09:47:53;14.90;99.90
16511;DHT22;8368;48.772;8.754;2022-10-10T09:50:20;15.00;99.90
16511;DHT22;8368;48.772;8.754;2022-10-10T09:52:46;15.10;99.90
16511;DHT22;8368;48.772;8.754;2022-10-10T09:55:29;15.10;99.90
16511;DHT22;8368;48.772;8.754;2022-10-10T09:58:03;15.40;99.90
16511;DHT22;8368;48.772;8.754;2022-10-10T10:00:36;15.50;99.90
16511;DHT22;8368;48.772;8.754;2022-10-10T10:03:14;15.60;99.90
16511;DHT22;8368;48.772;8.754;2022-10-10T10:05:43;15.60;99.90
16511;DHT22;8368;48.772;8.754;2022-10-10T10:08:29;15.70;99.90
16511;DHT22;8368;48.772;8.754;2022-10-10T10:10:56;15.80;99.90
16511;DHT22;8368;48.772;8.754;2022-10-10T10:13:34;16.00;99.90
16511;DHT22;8368;48.772;8.754;2022-10-10T10:18:28;16.40;99.90
16511;DHT22;8368;48.772;8.754;2022-10-10T10:21:16;16.50;99.90
16511;DHT22;8368;48.772;8.754;2022-10-10T10:28:40;16.60;99.90
16511;DHT22;8368;48.772;8.754;2022-10-10T10:34:26;16.90;99.90
16511;DHT22;8368;48.772;8.754;2022-10-10T10:45:27;17.60;99.90
16511;DHT22;8368;48.772;8.754;2022-10-10T10:51:00;18.00;99.90
16511;DHT22;8368;48.772;8.754;2022-10-10T10:53:37;18.20;99.90
16511;DHT22;8368;48.772;8.754;2022-10-10T10:56:25;18.20;99.90
16511;DHT22;8368;48.772;8.754;2022-10-10T10:59:06;18.20;99.90
16511;DHT22;8368;48.772;8.754;2022-10-10T11:07:36;18.40;99.90
16511;DHT22;8368;48.772;8.754;2022-10-10T11:10:24;18.60;99.90
16511;DHT22;8368;48.772;8.754;2022-10-10T11:13:30;18.70;99.90
16511;DHT22;8368;48.772;8.754;2022-10-10T11:16:15;18.70;99.90
16511;DHT22;8368;48.772;8.754;2022-10-10T11:21:23;19.10;99.90
16511;DHT22;8368;48.772;8.754;2022-10-10T11:23:55;19.30;99.90
16511;DHT22;8368;48.772;8.754;2022-10-10T11:26:38;19.50;99.90
16511;DHT22;8368;48.772;8.754;2022-10-10T11:29:12;19.60;99.90
16511;DHT22;8368;48.772;8.754;2022-10-10T11:31:43;19.70;99.90
16511;DHT22;8368;48.772;8.754;2022-10-10T11:34:21;19.80;99.90
16511;DHT22;8368;48.772;8.754;2022-10-10T11:36:48;20.00;99.90
16511;DHT22;8368;48.772;8.754;2022-10-10T11:39:35;20.00;99.90
16511;DHT22;8368;48.772;8.754;2022-10-10T11:42:20;20.10;99.90
16511;DHT22;8368;48.772;8.754;2022-10-10T11:44:56;20.10;99.90
16511;DHT22;8368;48.772;8.754;2022-10-10T11:58:37;20.00;99.90
16511;DHT22;8368;48.772;8.754;2022-10-10T12:03:49;20.00;99.90
16511;DHT22;8368;48.772;8.754;2022-10-10T12:09:05;19.60;99.90
16511;DHT22;8368;48.772;8.754;2022-10-10T12:11:42;19.50;99.90
16511;DHT22;8368;48.772;8.754;2022-10-10T12:14:15;19.60;99.90
16511;DHT22;8368;48.772;8.754;2022-10-10T12:16:42;19.60;99.90
16511;DHT22;8368;48.772;8.754;2022-10-10T12:19:22;19.70;99.90
16511;DHT22;8368;48.772;8.754;2022-10-10T12:24:20;19.50;99.90
16511;DHT22;8368;48.772;8.754;2022-10-10T12:44:59;19.00;99.90
16511;DHT22;8368;48.772;8.754;2022-10-10T12:47:34;19.00;99.90
16511;DHT22;8368;48.772;8.754;2022-10-10T12:50:04;19.20;99.90
16511;DHT22;8368;48.772;8.754;2022-10-10T12:52:43;19.30;99.90
16511;DHT22;8368;48.772;8.754;2022-10-10T12:55:26;19.50;99.90
16511;DHT22;8368;48.772;8.754;2022-10-10T12:57:55;19.80;99.90
16511;DHT22;8368;48.772;8.754;2022-10-10T13:00:24;20.00;99.90
16511;DHT22;8368;48.772;8.754;2022-10-10T13:02:55;20.70;99.90
16511;DHT22;8368;48.772;8.754;2022-10-10T13:05:28;21.60;99.90
16511;DHT22;8368;48.772;8.754;2022-10-10T13:08:00;22.50;99.90
16511;DHT22;8368;48.772;8.754;2022-10-10T13:10:29;23.10;99.90
16511;DHT22;8368;48.772;8.754;2022-10-10T13:15:25;22.70;99.90
16511;DHT22;8368;48.772;8.754;2022-10-10T13:17:51;22.50;99.90
16511;DHT22;8368;48.772;8.754;2022-10-10T13:20:35;22.30;99.90
16511;DHT22;8368;48.772;8.754;2022-10-10T13:23:12;21.80;99.90
16511;DHT22;8368;48.772;8.754;2022-10-10T13:25:39;21.20;99.90
16511;DHT22;8368;48.772;8.754;2022-10-10T13:28:16;21.00;99.90
16511;DHT22;8368;48.772;8.754;2022-10-10T13:30:42;20.80;99.90
16511;DHT22;8368;48.772;8.754;2022-10-10T13:33:20;20.90;99.90
16511;DHT22;8368;48.772;8.754;2022-10-10T13:35:49;20.90;99.90
16511;DHT22;8368;48.772;8.754;2022-10-10T13:38:17;20.80;99.90
16511;DHT22;8368;48.772;8.754;2022-10-10T13:40:44;20.70;99.90
16511;DHT22;8368;48.772;8.754;2022-10-10T13:43:13;20.50;99.90
16511;DHT22;8368;48.772;8.754;2022-10-10T13:51:11;20.20;99.90
16511;DHT22;8368;48.772;8.754;2022-10-10T13:56:28;20.20;99.90
16511;DHT22;8368;48.772;8.754;2022-10-10T14:04:28;20.20;99.90
16511;DHT22;8368;48.772;8.754;2022-10-10T14:06:59;20.20;99.90
16511;DHT22;8368;48.772;8.754;2022-10-10T14:09:38;20.20;99.90
16511;DHT22;8368;48.772;8.754;2022-10-10T14:12:29;20.10;99.90
16511;DHT22;8368;48.772;8.754;2022-10-10T14:14:54;20.00;99.90
16511;DHT22;8368;48.772;8.754;2022-10-10T14:17:20;19.90;99.90
16511;DHT22;8368;48.772;8.754;2022-10-10T14:19:47;19.90;99.90
16511;DHT22;8368;48.772;8.754;2022-10-10T14:22:13;19.90;99.90
16511;DHT22;8368;48.772;8.754;2022-10-10T14:24:38;19.90;99.90
16511;DHT22;8368;48.772;8.754;2022-10-10T14:27:20;19.80;99.90
16511;DHT22;8368;48.772;8.754;2022-10-10T14:29:46;19.70;99.90
16511;DHT22;8368;48.772;8.754;2022-10-10T14:32:12;19.60;99.90
16511;DHT22;8368;48.772;8.754;2022-10-10T14:34:39;19.70;99.90
16511;DHT22;8368;48.772;8.754;2022-10-10T14:37:05;19.60;99.90
16511;DHT22;8368;48.772;8.754;2022-10-10T14:39:34;19.70;99.90
16511;DHT22;8368;48.772;8.754;2022-10-10T14:42:00;19.70;99.90
16511;DHT22;8368;48.772;8.754;2022-10-10T14:44:26;19.70;99.90
16511;DHT22;8368;48.772;8.754;2022-10-10T14:46:51;19.70;99.90
16511;DHT22;8368;48.772;8.754;2022-10-10T14:49:18;19.60;99.90
16511;DHT22;8368;48.772;8.754;2022-10-10T14:51:45;19.50;99.90
16511;DHT22;8368;48.772;8.754;2022-10-10T14:54:20;19.60;99.90
16511;DHT22;8368;48.772;8.754;2022-10-10T14:56:47;19.60;99.90
16511;DHT22;8368;48.772;8.754;2022-10-10T14:59:19;19.60;99.90
16511;DHT22;8368;48.772;8.754;2022-10-10T15:01:45;19.70;99.90
16511;DHT22;8368;48.772;8.754;2022-10-10T15:04:12;19.90;99.90
16511;DHT22;8368;48.772;8.754;2022-10-10T15:06:37;20.00;99.90
16511;DHT22;8368;48.772;8.754;2022-10-10T15:09:03;19.90;99.90
16511;DHT22;8368;48.772;8.754;2022-10-10T15:11:29;19.90;99.90
16511;DHT22;8368;48.772;8.754;2022-10-10T15:13:54;19.80;99.90
16511;DHT22;8368;48.772;8.754;2022-10-10T15:16:21;19.60;99.90
16511;DHT22;8368;48.772;8.754;2022-10-10T15:18:47;19.50;99.90
16511;DHT22;8368;48.772;8.754;2022-10-10T15:21:12;19.30;99.90
16511;DHT22;8368;48.772;8.754;2022-10-10T15:23:38;19.30;99.90
16511;DHT22;8368;48.772;8.754;2022-10-10T15:26:04;19.20;99.90
16511;DHT22;8368;48.772;8.754;2022-10-10T15:28:31;19.20;99.90
16511;DHT22;8368;48.772;8.754;2022-10-10T15:30:57;19.20;99.90
16511;DHT22;8368;48.772;8.754;2022-10-10T15:33:23;19.10;99.90
16511;DHT22;8368;48.772;8.754;2022-10-10T15:36:15;19.00;99.90
16511;DHT22;8368;48.772;8.754;2022-10-10T15:38:41;18.90;99.90
16511;DHT22;8368;48.772;8.754;2022-10-10T15:41:08;18.80;99.90
16511;DHT22;8368;48.772;8.754;2022-10-10T15:43:48;18.70;99.90
16511;DHT22;8368;48.772;8.754;2022-10-10T15:46:17;18.50;99.90
16511;DHT22;8368;48.772;8.754;2022-10-10T15:48:43;18.40;99.90
16511;DHT22;8368;48.772;8.754;2022-10-10T15:51:09;18.30;99.90
16511;DHT22;8368;48.772;8.754;2022-10-10T15:53:34;18.20;99.90
16511;DHT22;8368;48.772;8.754;2022-10-10T15:56:05;18.10;99.90
16511;DHT22;8368;48.772;8.754;2022-10-10T15:58:31;17.90;99.90
16511;DHT22;8368;48.772;8.754;2022-10-10T16:00:58;17.70;99.90
16511;DHT22;8368;48.772;8.754;2022-10-10T16:03:23;17.50;99.90
16511;DHT22;8368;48.772;8.754;2022-10-10T16:05:49;17.40;99.90
16511;DHT22;8368;48.772;8.754;2022-10-10T16:08:15;17.30;99.90
16511;DHT22;8368;48.772;8.754;2022-10-10T16:10:42;17.20;99.90
16511;DHT22;8368;48.772;8.754;2022-10-10T16:13:08;17.00;99.90
16511;DHT22;8368;48.772;8.754;2022-10-10T16:15:34;16.90;99.90
16511;DHT22;8368;48.772;8.754;2022-10-10T16:18:00;16.70;99.90
16511;DHT22;8368;48.772;8.754;2022-10-10T16:20:25;16.60;99.90
16511;DHT22;8368;48.772;8.754;2022-10-10T16:22:51;16.60;99.90
16511;DHT22;8368;48.772;8.754;2022-10-10T16:25:17;16.50;99.90
16511;DHT22;8368;48.772;8.754;2022-10-10T16:27:43;16.50;99.90
16511;DHT22;8368;48.772;8.754;2022-10-10T16:30:09;16.50;99.90
16511;DHT22;8368;48.772;8.754;2022-10-10T16:32:35;16.40;99.90
16511;DHT22;8368;48.772;8.754;2022-10-10T16:35:01;16.20;99.90
16511;DHT22;8368;48.772;8.754;2022-10-10T16:37:26;16.10;99.90
16511;DHT22;8368;48.772;8.754;2022-10-10T16:39:52;15.90;99.90
16511;DHT22;8368;48.772;8.754;2022-10-10T16:42:17;15.70;99.90
16511;DHT22;8368;48.772;8.754;2022-10-10T16:44:43;15.50;99.90
16511;DHT22;8368;48.772;8.754;2022-10-10T16:47:08;15.30;99.90
16511;DHT22;8368;48.772;8.754;2022-10-10T16:49:34;15.20;99.90
16511;DHT22;8368;48.772;8.754;2022-10-10T16:52:00;15.00;99.90
16511;DHT22;8368;48.772;8.754;2022-10-10T16:54:25;14.90;99.90
16511;DHT22;8368;48.772;8.754;2022-10-10T16:56:51;14.80;99.90
16511;DHT22;8368;48.772;8.754;2022-10-10T16:59:16;14.70;99.90
16511;DHT22;8368;48.772;8.754;2022-10-10T17:01:42;14.50;99.90
16511;DHT22;8368;48.772;8.754;2022-10-10T17:04:07;14.40;99.90
16511;DHT22;8368;48.772;8.754;2022-10-10T17:06:33;14.30;99.90
16511;DHT22;8368;48.772;8.754;2022-10-10T17:09:06;14.30;99.90
16511;DHT22;8368;48.772;8.754;2022-10-10T17:11:33;14.20;99.90
16511;DHT22;8368;48.772;8.754;2022-10-10T17:13:58;14.10;99.90
16511;DHT22;8368;48.772;8.754;2022-10-10T17:16:26;14.00;99.90
16511;DHT22;8368;48.772;8.754;2022-10-10T17:18:52;14.00;99.90
16511;DHT22;8368;48.772;8.754;2022-10-10T17:21:20;14.00;99.90
16511;DHT22;8368;48.772;8.754;2022-10-10T17:23:47;14.00;99.90
16511;DHT22;8368;48.772;8.754;2022-10-10T17:26:16;14.00;99.90
16511;DHT22;8368;48.772;8.754;2022-10-10T17:28:42;14.10;99.90
16511;DHT22;8368;48.772;8.754;2022-10-10T17:31:11;14.10;99.90
16511;DHT22;8368;48.772;8.754;2022-10-10T17:33:39;14.50;99.90
16511;DHT22;8368;48.772;8.754;2022-10-10T17:36:07;14.50;99.90
16511;DHT22;8368;48.772;8.754;2022-10-10T17:38:33;14.30;99.90
16511;DHT22;8368;48.772;8.754;2022-10-10T17:40:59;14.10;99.90
16511;DHT22;8368;48.772;8.754;2022-10-10T17:43:24;14.00;99.90
16511;DHT22;8368;48.772;8.754;2022-10-10T17:45:50;13.80;99.90
16511;DHT22;8368;48.772;8.754;2022-10-10T17:48:16;13.70;99.90
16511;DHT22;8368;48.772;8.754;2022-10-10T17:50:42;13.70;99.90
16511;DHT22;8368;48.772;8.754;2022-10-10T17:53:07;13.60;99.90
16511;DHT22;8368;48.772;8.754;2022-10-10T17:55:33;13.50;99.90
16511;DHT22;8368;48.772;8.754;2022-10-10T17:57:58;13.50;99.90
16511;DHT22;8368;48.772;8.754;2022-10-10T18:00:24;13.40;99.90
16511;DHT22;8368;48.772;8.754;2022-10-10T18:02:50;13.30;99.90
16511;DHT22;8368;48.772;8.754;2022-10-10T18:05:16;13.30;99.90
16511;DHT22;8368;48.772;8.754;2022-10-10T18:07:41;13.20;99.90
16511;DHT22;8368;48.772;8.754;2022-10-10T18:10:08;13.20;99.90
16511;DHT22;8368;48.772;8.754;2022-10-10T18:12:34;13.10;99.90
16511;DHT22;8368;48.772;8.754;2022-10-10T18:15:00;13.10;99.90
16511;DHT22;8368;48.772;8.754;2022-10-10T18:17:27;13.00;99.90
16511;DHT22;8368;48.772;8.754;2022-10-10T18:19:53;13.00;99.90